THY9TY EHAM-LTFM
Flight info
| Callsign | THY9TY |
|---|---|
| Flight time | N/A |
| Altitude | 37000 |
| Route | EDUPO Z739 MISGO DCT GMH DCT EKSAK DCT SWALM DCT GASKA DCT ENITA DCT ETVIS DCT BUDEX DCT TEKNO DCT OGVUN DCT DUZLA DCT MAVIR DCT TIMUR L606 GASRU DCT RILEX |
| Aircraft | B77W/H-SDE1E2E3FGHIJ2J3J4J5M1RWXY/LB1D1 |
Departure
| Time | N/A |
|---|---|
| Airport | Amsterdam Airport Schiphol (EHAM) |
Arrival
| Time | 2026-05-07 21:14 |
|---|---|
| Airport | İstanbul Airport (LTFM) |
| Time | Latitude | Longitude | Altitude | Speed | Heading |
|---|---|---|---|---|---|
| 2026-05-07 20:49 | 41.61792 | 27.37605 | 22814 ft | 395 kts | 168° |
| 2026-05-07 20:49 | 41.59126 | 27.38503 | 22379 ft | 395 kts | 167° |
| 2026-05-07 20:49 | 41.56471 | 27.39433 | 21962 ft | 394 kts | 167° |
| 2026-05-07 20:50 | 41.53827 | 27.40360 | 21568 ft | 393 kts | 167° |
| 2026-05-07 20:50 | 41.51187 | 27.41280 | 21166 ft | 391 kts | 167° |
| 2026-05-07 20:50 | 41.48566 | 27.42206 | 20775 ft | 386 kts | 164° |
| 2026-05-07 20:50 | 41.46180 | 27.43744 | 20349 ft | 383 kts | 142° |
| 2026-05-07 20:51 | 41.44436 | 27.46409 | 19991 ft | 384 kts | 120° |
| 2026-05-07 20:51 | 41.43465 | 27.49709 | 19614 ft | 384 kts | 102° |
| 2026-05-07 20:51 | 41.43175 | 27.53236 | 19223 ft | 383 kts | 88° |
| 2026-05-07 20:51 | 41.43640 | 27.56699 | 18838 ft | 377 kts | 72° |
| 2026-05-07 20:52 | 41.44413 | 27.60034 | 18460 ft | 376 kts | 73° |
| 2026-05-07 20:52 | 41.45107 | 27.63403 | 18010 ft | 378 kts | 75° |
| 2026-05-07 20:52 | 41.45761 | 27.66790 | 17597 ft | 378 kts | 75° |
| 2026-05-07 20:52 | 41.46411 | 27.70179 | 17189 ft | 377 kts | 75° |
| 2026-05-07 20:53 | 41.47060 | 27.73547 | 16806 ft | 373 kts | 75° |
| 2026-05-07 20:53 | 41.47704 | 27.76880 | 16423 ft | 369 kts | 75° |
| 2026-05-07 20:53 | 41.48331 | 27.80170 | 16043 ft | 364 kts | 77° |
| 2026-05-07 20:53 | 41.48725 | 27.83486 | 15676 ft | 360 kts | 85° |
| 2026-05-07 20:54 | 41.48765 | 27.86807 | 15313 ft | 358 kts | 93° |
| 2026-05-07 20:54 | 41.48512 | 27.90094 | 14952 ft | 355 kts | 97° |
| 2026-05-07 20:54 | 41.48228 | 27.93360 | 14594 ft | 353 kts | 96° |
| 2026-05-07 20:54 | 41.47975 | 27.96609 | 14231 ft | 349 kts | 97° |
| 2026-05-07 20:55 | 41.47401 | 27.99706 | 13850 ft | 345 kts | 116° |
| 2026-05-07 20:55 | 41.45979 | 28.02279 | 13488 ft | 349 kts | 140° |
| 2026-05-07 20:55 | 41.44050 | 28.04191 | 13127 ft | 345 kts | 146° |
| 2026-05-07 20:55 | 41.42126 | 28.06133 | 12762 ft | 349 kts | 143° |
| 2026-05-07 20:56 | 41.40229 | 28.08143 | 12383 ft | 343 kts | 144° |
| 2026-05-07 20:56 | 41.38188 | 28.09683 | 12023 ft | 336 kts | 162° |
| 2026-05-07 20:56 | 41.35918 | 28.10154 | 11742 ft | 326 kts | 182° |
| 2026-05-07 20:56 | 41.33692 | 28.10034 | 11390 ft | 317 kts | 182° |
| 2026-05-07 20:57 | 41.31499 | 28.10052 | 11071 ft | 314 kts | 180° |
| 2026-05-07 20:57 | 41.29324 | 28.10115 | 10718 ft | 311 kts | 180° |
| 2026-05-07 20:57 | 41.27166 | 28.10168 | 10396 ft | 308 kts | 180° |
| 2026-05-07 20:57 | 41.25118 | 28.10512 | 10013 ft | 299 kts | 161° |
| 2026-05-07 20:58 | 41.23405 | 28.12029 | 9877 ft | 285 kts | 139° |
| 2026-05-07 20:58 | 41.21922 | 28.13758 | 9446 ft | 284 kts | 143° |
| 2026-05-07 20:58 | 41.20383 | 28.15336 | 9123 ft | 274 kts | 144° |
| 2026-05-07 20:58 | 41.18891 | 28.16833 | 8826 ft | 264 kts | 144° |
| 2026-05-07 20:59 | 41.17445 | 28.18291 | 8581 ft | 261 kts | 144° |
| 2026-05-07 20:59 | 41.15993 | 28.19763 | 8336 ft | 264 kts | 144° |
| 2026-05-07 20:59 | 41.14526 | 28.21259 | 8079 ft | 268 kts | 144° |
| 2026-05-07 20:59 | 41.13041 | 28.22780 | 7813 ft | 270 kts | 144° |
| 2026-05-07 21:00 | 41.11563 | 28.24297 | 7540 ft | 268 kts | 144° |
| 2026-05-07 21:00 | 41.10094 | 28.25806 | 7277 ft | 266 kts | 144° |
| 2026-05-07 21:00 | 41.08636 | 28.27305 | 7010 ft | 264 kts | 144° |
| 2026-05-07 21:00 | 41.07193 | 28.28788 | 6746 ft | 262 kts | 144° |
| 2026-05-07 21:01 | 41.05761 | 28.30259 | 6499 ft | 260 kts | 144° |
| 2026-05-07 21:01 | 41.04338 | 28.31721 | 6231 ft | 258 kts | 145° |
| 2026-05-07 21:01 | 41.02927 | 28.33170 | 5966 ft | 255 kts | 145° |
| 2026-05-07 21:01 | 41.01529 | 28.34604 | 5707 ft | 253 kts | 145° |
| 2026-05-07 21:02 | 41.00142 | 28.36025 | 5468 ft | 251 kts | 145° |
| 2026-05-07 21:02 | 40.98765 | 28.37436 | 5208 ft | 249 kts | 145° |
| 2026-05-07 21:02 | 40.97502 | 28.38957 | 4995 ft | 244 kts | 126° |
| 2026-05-07 21:02 | 40.96875 | 28.41040 | 4967 ft | 248 kts | 105° |
| 2026-05-07 21:03 | 40.96375 | 28.43268 | 4889 ft | 257 kts | 111° |
| 2026-05-07 21:03 | 40.95767 | 28.45484 | 4803 ft | 255 kts | 113° |
| 2026-05-07 21:03 | 40.94993 | 28.47543 | 4711 ft | 247 kts | 124° |
| 2026-05-07 21:03 | 40.94086 | 28.49420 | 4650 ft | 245 kts | 125° |
| 2026-05-07 21:04 | 40.93172 | 28.51318 | 4585 ft | 245 kts | 124° |
| 2026-05-07 21:04 | 40.92272 | 28.53224 | 4515 ft | 245 kts | 124° |
| 2026-05-07 21:04 | 40.91362 | 28.55172 | 4448 ft | 246 kts | 124° |
| 2026-05-07 21:04 | 40.90483 | 28.57084 | 4378 ft | 248 kts | 122° |
| 2026-05-07 21:05 | 40.89685 | 28.59112 | 4311 ft | 249 kts | 118° |
| 2026-05-07 21:05 | 40.88919 | 28.61154 | 4242 ft | 251 kts | 119° |
| 2026-05-07 21:05 | 40.88140 | 28.63209 | 4176 ft | 252 kts | 119° |
| 2026-05-07 21:05 | 40.87375 | 28.65296 | 4082 ft | 249 kts | 112° |
| 2026-05-07 21:06 | 40.87194 | 28.67542 | 4019 ft | 250 kts | 75° |
| 2026-05-07 21:06 | 40.87999 | 28.69546 | 4029 ft | 249 kts | 41° |
| 2026-05-07 21:06 | 40.89381 | 28.70879 | 4020 ft | 245 kts | 25° |
| 2026-05-07 21:06 | 40.90870 | 28.71912 | 4013 ft | 246 kts | 23° |
| 2026-05-07 21:07 | 40.92397 | 28.72936 | 3995 ft | 248 kts | 23° |
| 2026-05-07 21:07 | 40.93937 | 28.73956 | 4015 ft | 247 kts | 23° |
| 2026-05-07 21:07 | 40.95466 | 28.74983 | 4023 ft | 246 kts | 23° |
| 2026-05-07 21:07 | 40.96996 | 28.75943 | 3995 ft | 237 kts | 13° |
| 2026-05-07 21:08 | 40.98570 | 28.76163 | 4020 ft | 224 kts | 352° |
| 2026-05-07 21:08 | 41.00092 | 28.76103 | 4004 ft | 214 kts | 355° |
| 2026-05-07 21:08 | 41.01569 | 28.76115 | 4045 ft | 213 kts | 355° |
| 2026-05-07 21:08 | 41.03043 | 28.76105 | 4013 ft | 210 kts | 355° |
| 2026-05-07 21:09 | 41.04492 | 28.76082 | 4011 ft | 207 kts | 354° |
| 2026-05-07 21:09 | 41.05927 | 28.76053 | 4019 ft | 206 kts | 354° |
| 2026-05-07 21:09 | 41.07344 | 28.76028 | 3957 ft | 200 kts | 354° |
| 2026-05-07 21:09 | 41.08700 | 28.76004 | 3723 ft | 187 kts | 353° |
| 2026-05-07 21:10 | 41.09954 | 28.75985 | 3453 ft | 173 kts | 353° |
| 2026-05-07 21:10 | 41.11125 | 28.75960 | 3238 ft | 167 kts | 353° |
| 2026-05-07 21:10 | 41.11521 | 28.75950 | 3172 ft | 168 kts | 353° |
| 2026-05-07 21:10 | 41.13459 | 28.75911 | 2820 ft | 167 kts | 353° |
| 2026-05-07 21:11 | 41.14616 | 28.75888 | 2591 ft | 166 kts | 353° |
| 2026-05-07 21:11 | 41.15764 | 28.75872 | 2355 ft | 164 kts | 353° |
| 2026-05-07 21:11 | 41.18040 | 28.75823 | 1931 ft | 164 kts | 353° |
| 2026-05-07 21:12 | 41.19170 | 28.75801 | 1709 ft | 160 kts | 354° |
| 2026-05-07 21:12 | 41.20241 | 28.75784 | 1506 ft | 148 kts | 354° |
| 2026-05-07 21:12 | 41.21272 | 28.75762 | 1325 ft | 149 kts | 355° |
| 2026-05-07 21:12 | 41.22308 | 28.75742 | 1103 ft | 148 kts | 356° |
| 2026-05-07 21:13 | 41.23339 | 28.75722 | 931 ft | 149 kts | 357° |
| 2026-05-07 21:13 | 41.24379 | 28.75719 | 737 ft | 151 kts | 358° |
| 2026-05-07 21:13 | 41.25438 | 28.75689 | 530 ft | 152 kts | 358° |
| 2026-05-07 21:13 | 41.26491 | 28.75667 | 369 ft | 151 kts | 358° |
| 2026-05-07 21:14 | 41.27458 | 28.75644 | 335 ft | 120 kts | 359° |
| 2026-05-07 21:14 | 41.28103 | 28.75631 | 338 ft | 67 kts | 359° |
| 2026-05-07 21:14 | 41.28335 | 28.75583 | 334 ft | 25 kts | 334° |
| 2026-05-07 21:14 | 41.28465 | 28.75486 | 334 ft | 14 kts | 325° |
| 2026-05-07 21:15 | 41.28487 | 28.75407 | 337 ft | 8 kts | 265° |
| 2026-05-07 21:15 | 41.28449 | 28.75347 | 335 ft | 14 kts | 203° |
| 2026-05-07 21:15 | 41.28311 | 28.75343 | 337 ft | 22 kts | 179° |
| 2026-05-07 21:15 | 41.28157 | 28.75348 | 335 ft | 22 kts | 179° |
| 2026-05-07 21:16 | 41.28056 | 28.75349 | 338 ft | 22 kts | 179° |
| 2026-05-07 21:16 | 41.27902 | 28.75352 | 336 ft | 22 kts | 179° |
| 2026-05-07 21:16 | 41.27749 | 28.75356 | 334 ft | 22 kts | 179° |
| 2026-05-07 21:16 | 41.27596 | 28.75360 | 337 ft | 22 kts | 179° |
| 2026-05-07 21:17 | 41.27443 | 28.75363 | 335 ft | 22 kts | 179° |
| 2026-05-07 21:17 | 41.27289 | 28.75366 | 335 ft | 22 kts | 179° |
| 2026-05-07 21:17 | 41.27081 | 28.75339 | 335 ft | 11 kts | 236° |
| 2026-05-07 21:18 | 41.27069 | 28.75223 | 339 ft | 16 kts | 269° |
| 2026-05-07 21:18 | 41.27066 | 28.75045 | 338 ft | 24 kts | 269° |
| 2026-05-07 21:18 | 41.27063 | 28.74824 | 336 ft | 23 kts | 269° |
| 2026-05-07 21:18 | 41.27061 | 28.74607 | 335 ft | 23 kts | 269° |
| 2026-05-07 21:19 | 41.27058 | 28.74391 | 335 ft | 23 kts | 269° |
| 2026-05-07 21:19 | 41.27056 | 28.74173 | 335 ft | 23 kts | 269° |
| 2026-05-07 21:19 | 41.27024 | 28.74021 | 335 ft | 17 kts | 205° |
| 2026-05-07 21:19 | 41.26909 | 28.74015 | 335 ft | 17 kts | 179° |
| 2026-05-07 21:20 | 41.26810 | 28.74034 | 333 ft | 12 kts | 135° |
| 2026-05-07 21:20 | 41.26801 | 28.74107 | 335 ft | 2 kts | 89° |
| 2026-05-07 21:20 | 41.26801 | 28.74112 | 335 ft | 0 kts | 89° |